createdAt,value
2022-09-28T00:02:06.683Z,2.70
2022-09-28T00:04:33.449Z,4.10
2022-09-28T00:07:00.611Z,4.35
2022-09-28T00:09:26.875Z,3.17
2022-09-28T00:11:57.422Z,5.53
2022-09-28T00:14:24.568Z,5.13
2022-09-28T00:16:50.998Z,4.72
2022-09-28T00:19:17.751Z,3.33
2022-09-28T00:21:44.298Z,3.88
2022-09-28T00:24:15.747Z,3.90
2022-09-28T00:26:43.850Z,4.53
2022-09-28T00:29:18.634Z,4.50
2022-09-28T00:31:45.271Z,5.00
2022-09-28T00:34:12.123Z,5.18
2022-09-28T00:36:38.697Z,7.63
2022-09-28T00:39:06.319Z,5.03
2022-09-28T00:41:33.104Z,5.13
2022-09-28T00:44:18.070Z,3.92
2022-09-28T00:46:44.445Z,3.70
2022-09-28T00:49:14.999Z,3.10
2022-09-28T00:51:42.165Z,4.43
2022-09-28T00:54:09.301Z,7.15
2022-09-28T00:56:37.226Z,2.88
2022-09-28T00:59:07.064Z,4.78
2022-09-28T01:01:33.399Z,4.47
2022-09-28T01:04:01.408Z,6.85
2022-09-28T01:06:31.225Z,3.85
2022-09-28T01:08:58.584Z,3.15
2022-09-28T01:11:25.594Z,2.97
2022-09-28T01:13:53.320Z,4.70
2022-09-28T01:16:27.644Z,2.47
2022-09-28T01:18:59.987Z,3.80
2022-09-28T01:21:26.441Z,3.30
2022-09-28T01:24:11.520Z,3.53
2022-09-28T01:26:58.224Z,3.72
2022-09-28T01:29:27.623Z,2.75
2022-09-28T01:31:59.242Z,2.08
2022-09-28T01:34:29.481Z,5.10
2022-09-28T01:36:56.806Z,4.88
2022-09-28T01:39:32.423Z,3.15
2022-09-28T01:44:26.002Z,2.70
2022-09-28T01:46:52.622Z,3.72
2022-09-28T01:49:31.594Z,4.10
2022-09-28T01:52:00.972Z,4.68
2022-09-28T01:54:32.340Z,4.53
2022-09-28T01:57:11.021Z,4.70
2022-09-28T01:59:39.711Z,3.13
2022-09-28T02:02:09.895Z,3.28
2022-09-28T02:04:39.635Z,2.70
2022-09-28T02:07:32.392Z,6.82
2022-09-28T02:10:00.985Z,3.50
2022-09-28T02:12:35.327Z,6.18
2022-09-28T02:15:06.184Z,3.17
2022-09-28T02:17:32.602Z,3.67
2022-09-28T02:19:58.952Z,6.63
2022-09-28T02:22:28.662Z,3.97
2022-09-28T02:25:13.760Z,5.30
2022-09-28T02:27:40.087Z,4.13
2022-09-28T02:30:07.499Z,3.03
2022-09-28T02:32:35.108Z,5.70
2022-09-28T02:35:01.488Z,3.42
2022-09-28T02:37:28.115Z,6.20
2022-09-28T02:39:54.503Z,5.18
2022-09-28T02:42:20.863Z,5.18
2022-09-28T02:44:47.172Z,5.07
2022-09-28T02:47:13.472Z,5.15
2022-09-28T02:49:49.702Z,7.30
2022-09-28T02:52:33.861Z,6.05
2022-09-28T02:55:00.218Z,6.18
2022-09-28T02:57:49.511Z,4.85
2022-09-28T03:00:20.106Z,5.32
2022-09-28T03:02:52.374Z,4.75
2022-09-28T03:05:18.673Z,4.15
2022-09-28T03:07:48.128Z,5.60
2022-09-28T03:10:14.478Z,8.35
2022-09-28T03:12:41.734Z,6.70
2022-09-28T03:15:08.171Z,4.65
2022-09-28T03:17:34.566Z,4.38
2022-09-28T03:20:00.959Z,5.47
2022-09-28T03:22:27.391Z,5.05
2022-09-28T03:24:53.752Z,5.07
2022-09-28T03:27:20.145Z,6.03
2022-09-28T03:29:46.492Z,3.33
2022-09-28T03:32:12.821Z,4.78
2022-09-28T03:34:39.198Z,4.55
2022-09-28T03:37:05.509Z,4.70
2022-09-28T03:39:31.924Z,5.43
2022-09-28T03:42:00.186Z,4.22
2022-09-28T03:44:28.067Z,3.10
2022-09-28T03:46:54.368Z,8.55
2022-09-28T03:49:20.866Z,4.10
2022-09-28T03:51:47.197Z,4.20
2022-09-28T03:54:13.847Z,6.75
2022-09-28T03:56:40.703Z,4.90
2022-09-28T03:59:07.039Z,5.18
2022-09-28T04:01:33.490Z,5.05
2022-09-28T04:03:59.966Z,4.35
2022-09-28T04:06:26.575Z,4.50
2022-09-28T04:08:53.445Z,4.47
2022-09-28T04:11:19.867Z,4.90
2022-09-28T04:13:48.099Z,7.32
2022-09-28T04:16:15.830Z,5.22
2022-09-28T04:18:42.544Z,6.93
2022-09-28T04:21:11.406Z,5.00
2022-09-28T04:23:39.207Z,5.28
2022-09-28T04:26:06.572Z,9.43
2022-09-28T04:28:51.842Z,12.02
2022-09-28T04:31:19.312Z,7.47
2022-09-28T04:33:46.023Z,6.75
2022-09-28T04:36:12.526Z,6.25
2022-09-28T04:38:52.201Z,6.10
2022-09-28T04:41:20.029Z,8.00
2022-09-28T04:43:46.988Z,8.65
2022-09-28T04:46:13.451Z,6.03
2022-09-28T04:48:40.019Z,7.22
2022-09-28T04:51:06.603Z,7.82
2022-09-28T04:53:35.047Z,8.77
2022-09-28T04:56:11.617Z,6.78
2022-09-28T04:58:38.336Z,9.93
2022-09-28T05:01:06.819Z,6.28
2022-09-28T05:03:33.489Z,6.53
2022-09-28T05:06:00.184Z,6.82
2022-09-28T05:08:26.743Z,8.82
2022-09-28T05:10:59.939Z,5.68
2022-09-28T05:13:26.466Z,6.40
2022-09-28T05:15:57.555Z,7.18
2022-09-28T05:18:26.099Z,8.93
2022-09-28T05:20:52.460Z,7.50
2022-09-28T05:23:18.946Z,7.43
2022-09-28T05:25:48.325Z,8.15
2022-09-28T05:28:14.622Z,8.27
2022-09-28T05:30:41.113Z,8.38
2022-09-28T05:33:07.542Z,6.13
2022-09-28T05:35:34.114Z,4.93
2022-09-28T05:38:07.013Z,8.88
2022-09-28T05:40:33.349Z,12.98
2022-09-28T05:43:01.073Z,6.43
2022-09-28T05:45:28.235Z,5.10
2022-09-28T05:47:54.661Z,12.18
2022-09-28T05:50:21.175Z,5.88
2022-09-28T05:52:47.541Z,6.63
2022-09-28T05:55:13.996Z,8.13
2022-09-28T05:57:40.377Z,5.05
2022-09-28T06:00:09.268Z,5.43
2022-09-28T06:02:35.721Z,8.85
2022-09-28T06:05:02.062Z,9.00
2022-09-28T06:07:28.437Z,5.13
2022-09-28T06:09:54.768Z,5.93
2022-09-28T06:12:21.129Z,5.95
2022-09-28T06:14:48.633Z,8.40
2022-09-28T06:17:14.970Z,6.07
2022-09-28T06:19:41.337Z,8.73
2022-09-28T06:22:07.977Z,9.75
2022-09-28T06:24:34.353Z,4.70
2022-09-28T06:27:00.675Z,8.07
2022-09-28T06:29:26.970Z,4.25
2022-09-28T06:31:53.389Z,7.15
2022-09-28T06:34:21.366Z,8.77
2022-09-28T06:36:48.853Z,5.82
2022-09-28T06:39:15.412Z,4.60
2022-09-28T06:41:41.817Z,6.65
2022-09-28T06:44:08.310Z,7.68
2022-09-28T06:46:35.670Z,6.05
2022-09-28T06:49:04.632Z,11.57
2022-09-28T06:51:30.940Z,10.32
2022-09-28T06:53:59.736Z,4.65
2022-09-28T06:56:30.600Z,9.10
2022-09-28T06:58:59.003Z,7.18
2022-09-28T07:01:25.433Z,5.60
2022-09-28T07:03:55.546Z,9.35
2022-09-28T07:06:24.128Z,9.65
2022-09-28T07:08:53.423Z,8.35
2022-09-28T07:11:26.965Z,5.75
2022-09-28T07:13:53.310Z,10.88
2022-09-28T07:16:24.162Z,9.75
2022-09-28T07:18:52.952Z,6.68
2022-09-28T07:21:27.982Z,14.77
2022-09-28T07:23:55.786Z,6.50
2022-09-28T07:26:24.460Z,9.73
2022-09-28T07:28:51.074Z,7.55
2022-09-28T07:31:17.535Z,5.07
2022-09-28T07:33:43.864Z,7.65
2022-09-28T07:36:10.678Z,5.35
2022-09-28T07:38:38.279Z,8.00
2022-09-28T07:41:14.809Z,7.43
2022-09-28T07:43:41.587Z,9.93
2022-09-28T07:46:14.862Z,9.55
2022-09-28T07:48:42.269Z,10.32
2022-09-28T07:51:09.194Z,10.77
2022-09-28T07:53:36.152Z,9.75
2022-09-28T07:56:06.187Z,8.68
2022-09-28T07:58:33.087Z,13.07
2022-09-28T08:01:01.157Z,13.77
2022-09-28T08:03:27.515Z,10.90
2022-09-28T08:06:01.180Z,9.43
2022-09-28T08:08:28.814Z,6.25
2022-09-28T08:13:27.665Z,9.95
2022-09-28T08:15:54.619Z,12.40
2022-09-28T08:18:21.030Z,7.25
2022-09-28T08:21:06.359Z,8.65
2022-09-28T08:23:34.182Z,6.68
2022-09-28T08:26:00.507Z,8.30
2022-09-28T08:28:26.867Z,8.93
2022-09-28T08:30:54.343Z,8.07
2022-09-28T08:33:23.853Z,6.07
2022-09-28T08:35:57.792Z,3.90
2022-09-28T08:38:27.822Z,4.50
2022-09-28T08:41:11.601Z,3.80
2022-09-28T08:43:45.921Z,4.25
2022-09-28T08:46:13.550Z,3.08
2022-09-28T08:49:13.511Z,11.32
2022-09-28T08:52:13.499Z,3.03
2022-09-28T08:54:45.954Z,4.20
2022-09-28T08:57:12.373Z,5.53
2022-09-28T08:59:45.477Z,4.90
2022-09-28T09:02:16.440Z,4.82
2022-09-28T09:04:42.959Z,4.82
2022-09-28T09:07:15.659Z,4.97
2022-09-28T09:10:00.441Z,4.95
2022-09-28T09:12:45.222Z,4.05
2022-09-28T09:15:14.503Z,4.10
2022-09-28T09:17:50.044Z,4.10
2022-09-28T09:23:05.317Z,4.93
2022-09-28T09:25:38.394Z,3.97
2022-09-28T09:28:23.502Z,5.03
2022-09-28T09:31:18.570Z,4.10
2022-09-28T09:34:05.861Z,4.72
2022-09-28T09:36:50.964Z,6.00
2022-09-28T09:39:26.105Z,4.18
2022-09-28T09:41:55.435Z,1.85
2022-09-28T09:44:21.978Z,1.83
2022-09-28T09:46:51.341Z,2.13
2022-09-28T09:49:24.313Z,2.60
2022-09-28T09:51:55.955Z,7.90
2022-09-28T09:54:30.232Z,4.13
2022-09-28T09:57:03.638Z,1.60
2022-09-28T09:59:35.196Z,2.00
2022-09-28T10:02:02.993Z,2.30
2022-09-28T10:04:37.861Z,4.40
2022-09-28T10:07:05.683Z,3.10
2022-09-28T10:09:34.730Z,4.35
2022-09-28T10:12:01.610Z,3.22
2022-09-28T10:14:28.502Z,3.40
2022-09-28T10:16:55.886Z,3.15
2022-09-28T10:19:27.466Z,4.47
2022-09-28T10:21:53.804Z,2.67
2022-09-28T10:24:28.119Z,2.20
2022-09-28T10:26:55.580Z,2.80
2022-09-28T10:29:24.904Z,2.38
2022-09-28T10:31:52.014Z,2.33
2022-09-28T10:34:26.606Z,2.05
2022-09-28T10:36:56.048Z,1.40
2022-09-28T10:39:30.460Z,2.20
2022-09-28T10:41:58.693Z,1.30
2022-09-28T10:44:25.999Z,1.75
2022-09-28T10:46:56.784Z,2.55
2022-09-28T10:49:24.171Z,1.75
2022-09-28T10:51:52.043Z,2.65
2022-09-28T10:54:22.606Z,2.83
2022-09-28T10:56:49.789Z,4.10
2022-09-28T10:59:28.369Z,2.90
2022-09-28T11:01:59.026Z,0.75
2022-09-28T11:04:29.295Z,2.95
2022-09-28T11:09:30.754Z,0.80
2022-09-28T11:12:01.669Z,0.60
2022-09-28T11:14:41.117Z,0.65
2022-09-28T11:17:24.602Z,1.30
2022-09-28T11:19:52.284Z,1.23
2022-09-28T11:22:21.520Z,1.52
2022-09-28T11:24:48.514Z,1.15
2022-09-28T11:27:25.542Z,1.42
2022-09-28T11:29:58.623Z,2.00
2022-09-28T11:32:30.488Z,1.70
2022-09-28T11:35:00.156Z,1.50
2022-09-28T11:37:35.200Z,0.82
2022-09-28T11:40:01.518Z,1.00
2022-09-28T11:42:30.837Z,2.65
2022-09-28T11:45:17.460Z,1.80
2022-09-28T11:47:58.076Z,1.30
2022-09-28T11:50:24.874Z,0.82
2022-09-28T11:52:54.214Z,1.30
2022-09-28T11:55:20.621Z,2.20
2022-09-28T11:57:53.191Z,2.45
2022-09-28T12:00:20.690Z,3.67
2022-09-28T12:03:04.046Z,8.63
2022-09-28T12:05:33.690Z,5.47
2022-09-28T12:08:14.812Z,3.50
2022-09-28T12:11:01.529Z,5.68
2022-09-28T12:13:29.676Z,3.05
2022-09-28T12:16:23.325Z,2.55
2022-09-28T12:18:54.935Z,2.28
2022-09-28T12:21:30.556Z,1.50
2022-09-28T12:26:38.702Z,1.90
2022-09-28T12:29:16.741Z,1.77
2022-09-28T12:32:03.448Z,2.42
2022-09-28T12:34:29.806Z,1.80
2022-09-28T12:37:05.444Z,2.83
2022-09-28T12:42:32.598Z,2.28
2022-09-28T12:44:59.726Z,3.55
2022-09-28T12:47:35.197Z,3.53
2022-09-28T12:52:59.415Z,2.13
2022-09-28T12:55:36.338Z,2.72
2022-09-28T12:58:17.763Z,1.40
2022-09-28T13:00:53.519Z,1.88
2022-09-28T13:03:29.169Z,0.80
2022-09-28T13:08:44.031Z,1.27
2022-09-28T13:11:41.187Z,2.17
2022-09-28T13:14:19.524Z,2.92
2022-09-28T13:17:08.472Z,0.90
2022-09-28T13:19:42.343Z,2.40
2022-09-28T13:22:27.468Z,1.35
2022-09-28T13:24:55.480Z,2.03
2022-09-28T13:27:48.121Z,1.70
2022-09-28T13:30:15.304Z,3.28
2022-09-28T13:32:42.430Z,1.65
2022-09-28T13:35:16.107Z,1.75
2022-09-28T13:37:42.454Z,3.28
2022-09-28T13:40:09.109Z,2.15
2022-09-28T13:42:38.773Z,2.08
2022-09-28T13:45:28.074Z,1.95
2022-09-28T13:48:14.506Z,3.72
2022-09-28T13:50:50.243Z,5.13
2022-09-28T13:58:17.549Z,1.85
2022-09-28T14:00:50.539Z,2.78
2022-09-28T14:03:35.971Z,3.03
2022-09-28T14:06:10.984Z,2.17
2022-09-28T14:08:38.973Z,2.35
2022-09-28T14:11:24.929Z,2.97
2022-09-28T14:14:01.547Z,4.15
2022-09-28T14:16:31.096Z,5.82
2022-09-28T14:19:00.494Z,2.22
2022-09-28T14:21:39.021Z,3.80
2022-09-28T14:24:17.658Z,1.70
2022-09-28T14:26:46.945Z,2.42
2022-09-28T14:29:29.777Z,3.58
2022-09-28T14:31:58.228Z,4.57
2022-09-28T14:34:38.149Z,3.10
2022-09-28T14:37:35.277Z,2.88
2022-09-28T14:40:27.265Z,5.68
2022-09-28T14:43:13.869Z,5.53
2022-09-28T14:45:44.321Z,4.00
2022-09-28T14:48:15.235Z,6.97
2022-09-28T14:50:41.628Z,4.85
2022-09-28T14:53:13.538Z,6.47
2022-09-28T14:55:48.063Z,5.05
2022-09-28T14:58:19.744Z,1.33
2022-09-28T15:00:47.596Z,1.88
2022-09-28T15:03:14.495Z,1.38
2022-09-28T15:05:47.187Z,3.33
2022-09-28T15:08:13.748Z,3.38
2022-09-28T15:10:45.501Z,2.00
2022-09-28T15:13:28.006Z,3.00
2022-09-28T15:15:56.738Z,3.15
2022-09-28T15:18:27.604Z,3.03
2022-09-28T15:20:54.512Z,2.90
2022-09-28T15:23:23.861Z,4.70
2022-09-28T15:25:54.602Z,4.57
2022-09-28T15:28:24.606Z,3.05
2022-09-28T15:30:51.515Z,2.70
2022-09-28T15:33:42.677Z,7.90
2022-09-28T15:36:12.458Z,4.53
2022-09-28T15:38:40.358Z,2.75
2022-09-28T15:41:07.523Z,3.83
2022-09-28T15:43:36.509Z,2.40
2022-09-28T15:46:06.219Z,4.57
2022-09-28T15:48:41.523Z,4.70
2022-09-28T15:51:11.936Z,8.13
2022-09-28T15:54:09.278Z,7.78
2022-09-28T15:56:50.209Z,3.00
2022-09-28T15:59:16.513Z,4.22
2022-09-28T16:01:43.680Z,6.68
2022-09-28T16:04:28.970Z,3.35
2022-09-28T16:07:24.887Z,4.27
2022-09-28T16:09:57.152Z,6.97
2022-09-28T16:12:24.209Z,5.47
2022-09-28T16:14:54.279Z,4.13
2022-09-28T16:17:33.582Z,9.40
2022-09-28T16:20:01.489Z,5.13
2022-09-28T16:22:28.944Z,5.32
2022-09-28T16:24:56.974Z,3.63
2022-09-28T16:27:26.091Z,7.05
2022-09-28T16:30:05.228Z,3.97
2022-09-28T16:32:38.240Z,5.55
2022-09-28T16:35:07.755Z,4.55
2022-09-28T16:37:34.058Z,5.90
2022-09-28T16:40:00.507Z,4.47
2022-09-28T16:42:27.521Z,6.60
2022-09-28T16:44:56.534Z,6.28
2022-09-28T16:47:23.587Z,4.80
2022-09-28T16:49:50.221Z,6.80
2022-09-28T16:52:36.549Z,7.82
2022-09-28T16:55:36.190Z,6.25
2022-09-28T16:58:04.749Z,18.38
2022-09-28T17:00:31.841Z,9.20
2022-09-28T17:02:58.596Z,9.63
2022-09-28T17:05:25.547Z,7.90
2022-09-28T17:07:59.564Z,8.73
2022-09-28T17:10:33.703Z,6.95
2022-09-28T17:13:08.648Z,8.27
2022-09-28T17:15:35.736Z,6.10
2022-09-28T17:18:02.652Z,5.72
2022-09-28T17:20:29.722Z,6.28
2022-09-28T17:22:56.089Z,7.13
2022-09-28T17:25:23.378Z,11.52
2022-09-28T17:27:50.593Z,10.07
2022-09-28T17:30:17.377Z,8.95
2022-09-28T17:32:45.836Z,7.05
2022-09-28T17:35:24.209Z,8.05
2022-09-28T17:37:51.304Z,7.57
2022-09-28T17:40:25.904Z,13.00
2022-09-28T17:42:55.072Z,9.70
2022-09-28T17:45:22.400Z,9.98
2022-09-28T17:47:48.687Z,8.43
2022-09-28T17:50:18.100Z,9.18
2022-09-28T17:52:44.425Z,8.52
2022-09-28T17:55:10.819Z,8.05
2022-09-28T17:57:37.242Z,6.75
2022-09-28T18:00:03.891Z,7.28
2022-09-28T18:02:30.286Z,6.10
2022-09-28T18:04:56.999Z,7.72
2022-09-28T18:07:23.788Z,8.40
2022-09-28T18:09:53.021Z,6.47
2022-09-28T18:12:19.386Z,6.05
2022-09-28T18:14:49.626Z,5.97
2022-09-28T18:17:15.998Z,3.97
2022-09-28T18:19:42.313Z,4.22
2022-09-28T18:22:08.673Z,6.55
2022-09-28T18:24:35.001Z,4.43
2022-09-28T18:27:01.772Z,5.10
2022-09-28T18:29:32.231Z,4.45
2022-09-28T18:31:59.536Z,4.32
2022-09-28T18:34:25.860Z,4.35
2022-09-28T18:36:52.149Z,5.32
2022-09-28T18:39:20.973Z,6.25
2022-09-28T18:41:47.262Z,5.95
2022-09-28T18:44:13.573Z,4.00
2022-09-28T18:46:41.738Z,6.07
2022-09-28T18:49:08.110Z,4.65
2022-09-28T18:51:34.431Z,6.07
2022-09-28T18:54:06.607Z,5.43
2022-09-28T18:56:37.993Z,5.63
2022-09-28T18:59:07.647Z,4.85
2022-09-28T19:01:36.777Z,5.53
2022-09-28T19:04:04.378Z,7.72
2022-09-28T19:06:31.761Z,8.73
2022-09-28T19:08:58.636Z,5.28
2022-09-28T19:11:25.253Z,6.00
2022-09-28T19:13:52.702Z,4.85
2022-09-28T19:16:20.997Z,9.00
2022-09-28T19:18:47.795Z,4.72
2022-09-28T19:21:14.978Z,4.75
2022-09-28T19:23:44.780Z,5.00
2022-09-28T19:26:16.284Z,5.28
2022-09-28T19:28:43.043Z,4.28
2022-09-28T19:31:10.529Z,3.90
2022-09-28T19:33:37.259Z,4.75
2022-09-28T19:36:05.554Z,7.13
2022-09-28T19:38:33.090Z,5.72
2022-09-28T19:40:59.725Z,5.80
2022-09-28T19:43:26.740Z,4.45
2022-09-28T19:45:54.932Z,5.85
2022-09-28T19:48:27.868Z,5.72
2022-09-28T19:50:56.526Z,5.38
2022-09-28T19:53:23.627Z,5.57
2022-09-28T19:55:53.819Z,5.07
2022-09-28T19:58:24.319Z,4.95
2022-09-28T20:00:51.031Z,3.85
2022-09-28T20:03:18.575Z,5.25
2022-09-28T20:05:45.582Z,5.20
2022-09-28T20:08:12.677Z,4.25
2022-09-28T20:10:39.048Z,5.93
2022-09-28T20:13:05.450Z,4.75
2022-09-28T20:15:31.816Z,5.95
2022-09-28T20:17:58.965Z,5.00
2022-09-28T20:20:26.839Z,5.45
2022-09-28T20:22:53.995Z,5.38
2022-09-28T20:25:20.306Z,6.20
2022-09-28T20:27:46.648Z,5.78
2022-09-28T20:30:13.461Z,5.88
2022-09-28T20:32:39.779Z,4.82
2022-09-28T20:35:06.517Z,5.18
2022-09-28T20:37:33.179Z,7.57
2022-09-28T20:40:01.471Z,5.97
2022-09-28T20:42:27.835Z,6.25
2022-09-28T20:44:54.443Z,5.82
2022-09-28T20:47:20.923Z,5.82
2022-09-28T20:49:47.559Z,9.05
2022-09-28T20:52:13.935Z,7.15
2022-09-28T20:54:40.369Z,8.18
2022-09-28T20:57:17.339Z,9.02
2022-09-28T20:59:44.580Z,8.95
2022-09-28T21:02:14.738Z,11.30
2022-09-28T21:04:43.837Z,8.57
2022-09-28T21:07:10.723Z,7.68
2022-09-28T21:09:37.473Z,8.73
2022-09-28T21:12:04.323Z,8.60
2022-09-28T21:14:30.957Z,7.75
2022-09-28T21:16:57.295Z,10.45
2022-09-28T21:19:24.410Z,9.10
2022-09-28T21:21:51.151Z,9.27
2022-09-28T21:24:17.502Z,7.93
2022-09-28T21:26:43.912Z,10.60
2022-09-28T21:29:11.806Z,7.47
2022-09-28T21:31:38.109Z,7.35
2022-09-28T21:34:05.003Z,9.02
2022-09-28T21:36:31.903Z,8.95
2022-09-28T21:38:58.261Z,7.30
2022-09-28T21:41:25.153Z,8.63
2022-09-28T21:43:51.834Z,11.38
2022-09-28T21:46:18.283Z,7.43
2022-09-28T21:48:44.625Z,10.75
2022-09-28T21:51:13.564Z,9.07
2022-09-28T21:53:40.101Z,8.32
2022-09-28T21:56:07.914Z,10.02
2022-09-28T21:58:34.911Z,9.07
2022-09-28T22:01:02.348Z,10.10
2022-09-28T22:03:32.005Z,8.45
2022-09-28T22:05:58.428Z,10.27
2022-09-28T22:08:25.219Z,9.50
2022-09-28T22:11:01.701Z,9.18
2022-09-28T22:13:32.529Z,8.77
2022-09-28T22:15:59.318Z,7.65
2022-09-28T22:18:26.803Z,7.80
2022-09-28T22:21:06.636Z,8.40
2022-09-28T22:23:33.498Z,10.88
2022-09-28T22:26:04.982Z,7.82
2022-09-28T22:28:31.332Z,9.45
2022-09-28T22:30:58.056Z,8.77
2022-09-28T22:33:24.669Z,12.77
2022-09-28T22:35:51.354Z,8.30
2022-09-28T22:38:22.175Z,9.25
2022-09-28T22:40:49.930Z,8.38
2022-09-28T22:43:16.782Z,13.85
2022-09-28T22:45:43.346Z,10.73
2022-09-28T22:48:09.654Z,13.80
2022-09-28T22:50:35.942Z,10.25
2022-09-28T22:53:03.496Z,11.30
2022-09-28T22:55:30.115Z,9.90
2022-09-28T22:57:56.444Z,9.68
2022-09-28T23:00:22.800Z,11.48
2022-09-28T23:02:49.125Z,9.63
2022-09-28T23:05:17.022Z,9.23
2022-09-28T23:07:43.655Z,9.85
2022-09-28T23:10:09.988Z,9.93
2022-09-28T23:12:36.373Z,10.25
2022-09-28T23:15:04.606Z,10.38
2022-09-28T23:17:30.948Z,11.48
2022-09-28T23:19:57.325Z,9.88
2022-09-28T23:22:23.631Z,12.45
2022-09-28T23:24:50.033Z,9.20
2022-09-28T23:27:16.331Z,10.20
2022-09-28T23:29:46.807Z,12.48
2022-09-28T23:32:13.785Z,10.32
2022-09-28T23:34:40.353Z,8.68
2022-09-28T23:37:06.670Z,8.82
2022-09-28T23:39:33.187Z,7.93
2022-09-28T23:41:59.585Z,11.82
2022-09-28T23:44:27.965Z,10.30
2022-09-28T23:46:54.515Z,9.52
2022-09-28T23:49:21.237Z,9.70
2022-09-28T23:51:47.536Z,8.93
2022-09-28T23:54:13.894Z,7.70
2022-09-28T23:56:40.211Z,11.50
2022-09-28T23:59:07.491Z,9.93
